sensor_id;sensor_type;location;lat;lon;timestamp;temperature;humidity
16134;DHT22;8172;45.018;5.972;2023-06-14T00:01:26;16.70;73.90
16134;DHT22;8172;45.018;5.972;2023-06-14T00:06:35;16.60;74.00
16134;DHT22;8172;45.018;5.972;2023-06-14T00:11:43;16.60;74.10
16134;DHT22;8172;45.018;5.972;2023-06-14T00:16:50;16.70;74.10
16134;DHT22;8172;45.018;5.972;2023-06-14T00:21:59;16.70;74.20
16134;DHT22;8172;45.018;5.972;2023-06-14T00:27:07;16.70;74.10
16134;DHT22;8172;45.018;5.972;2023-06-14T00:32:15;16.70;73.80
16134;DHT22;8172;45.018;5.972;2023-06-14T00:37:23;16.60;73.90
16134;DHT22;8172;45.018;5.972;2023-06-14T00:42:31;16.60;73.90
16134;DHT22;8172;45.018;5.972;2023-06-14T00:47:40;16.60;73.90
16134;DHT22;8172;45.018;5.972;2023-06-14T00:52:48;16.50;73.70
16134;DHT22;8172;45.018;5.972;2023-06-14T00:57:57;16.50;73.50
16134;DHT22;8172;45.018;5.972;2023-06-14T01:03:05;16.40;73.40
16134;DHT22;8172;45.018;5.972;2023-06-14T01:08:20;16.40;73.50
16134;DHT22;8172;45.018;5.972;2023-06-14T01:13:28;16.40;73.60
16134;DHT22;8172;45.018;5.972;2023-06-14T01:18:35;16.40;73.60
16134;DHT22;8172;45.018;5.972;2023-06-14T01:23:44;16.40;73.50
16134;DHT22;8172;45.018;5.972;2023-06-14T01:28:53;16.40;73.60
16134;DHT22;8172;45.018;5.972;2023-06-14T01:34:03;16.30;73.70
16134;DHT22;8172;45.018;5.972;2023-06-14T01:39:13;16.40;73.60
16134;DHT22;8172;45.018;5.972;2023-06-14T01:44:23;16.30;73.50
16134;DHT22;8172;45.018;5.972;2023-06-14T01:49:33;16.30;73.60
16134;DHT22;8172;45.018;5.972;2023-06-14T01:54:41;16.30;73.80
16134;DHT22;8172;45.018;5.972;2023-06-14T01:59:49;16.30;73.90
16134;DHT22;8172;45.018;5.972;2023-06-14T02:04:57;16.30;74.00
16134;DHT22;8172;45.018;5.972;2023-06-14T02:10:05;16.30;74.10
16134;DHT22;8172;45.018;5.972;2023-06-14T02:15:13;16.30;74.10
16134;DHT22;8172;45.018;5.972;2023-06-14T02:20:23;16.40;74.10
16134;DHT22;8172;45.018;5.972;2023-06-14T02:25:32;16.40;74.10
16134;DHT22;8172;45.018;5.972;2023-06-14T02:30:39;16.40;74.00
16134;DHT22;8172;45.018;5.972;2023-06-14T02:35:47;16.40;74.00
16134;DHT22;8172;45.018;5.972;2023-06-14T02:40:55;16.40;73.90
16134;DHT22;8172;45.018;5.972;2023-06-14T02:46:04;16.40;74.00
16134;DHT22;8172;45.018;5.972;2023-06-14T02:51:12;16.40;74.00
16134;DHT22;8172;45.018;5.972;2023-06-14T02:56:20;16.30;74.00
16134;DHT22;8172;45.018;5.972;2023-06-14T03:01:31;16.30;74.00
16134;DHT22;8172;45.018;5.972;2023-06-14T03:06:42;16.30;74.10
16134;DHT22;8172;45.018;5.972;2023-06-14T03:11:51;16.30;74.10
16134;DHT22;8172;45.018;5.972;2023-06-14T03:17:00;16.30;74.10
16134;DHT22;8172;45.018;5.972;2023-06-14T03:22:08;16.30;74.30
16134;DHT22;8172;45.018;5.972;2023-06-14T03:27:19;16.40;74.40
16134;DHT22;8172;45.018;5.972;2023-06-14T03:32:26;16.40;74.40
16134;DHT22;8172;45.018;5.972;2023-06-14T03:40:54;16.40;74.50
16134;DHT22;8172;45.018;5.972;2023-06-14T03:46:03;16.40;74.60
16134;DHT22;8172;45.018;5.972;2023-06-14T03:51:21;16.40;74.80
16134;DHT22;8172;45.018;5.972;2023-06-14T03:56:30;16.40;74.80
16134;DHT22;8172;45.018;5.972;2023-06-14T04:01:38;16.40;74.80
16134;DHT22;8172;45.018;5.972;2023-06-14T04:06:47;16.40;74.80
16134;DHT22;8172;45.018;5.972;2023-06-14T04:11:54;16.40;74.80
16134;DHT22;8172;45.018;5.972;2023-06-14T04:17:02;16.40;74.80
16134;DHT22;8172;45.018;5.972;2023-06-14T04:22:11;16.40;74.80
16134;DHT22;8172;45.018;5.972;2023-06-14T04:27:18;16.40;74.90
16134;DHT22;8172;45.018;5.972;2023-06-14T04:32:27;16.40;74.80
16134;DHT22;8172;45.018;5.972;2023-06-14T04:37:37;16.40;74.80
16134;DHT22;8172;45.018;5.972;2023-06-14T04:42:46;16.40;74.90
16134;DHT22;8172;45.018;5.972;2023-06-14T04:47:56;16.50;75.00
16134;DHT22;8172;45.018;5.972;2023-06-14T04:53:05;16.50;75.10
16134;DHT22;8172;45.018;5.972;2023-06-14T04:58:13;16.50;75.20
16134;DHT22;8172;45.018;5.972;2023-06-14T05:03:21;16.50;75.40
16134;DHT22;8172;45.018;5.972;2023-06-14T05:08:30;16.60;75.50
16134;DHT22;8172;45.018;5.972;2023-06-14T05:13:38;16.60;75.50
16134;DHT22;8172;45.018;5.972;2023-06-14T05:18:48;16.60;75.70
16134;DHT22;8172;45.018;5.972;2023-06-14T05:23:57;16.70;75.70
16134;DHT22;8172;45.018;5.972;2023-06-14T05:29:06;16.70;75.70
16134;DHT22;8172;45.018;5.972;2023-06-14T05:34:13;16.70;75.70
16134;DHT22;8172;45.018;5.972;2023-06-14T05:39:20;16.80;75.90
16134;DHT22;8172;45.018;5.972;2023-06-14T05:44:27;16.80;76.10
16134;DHT22;8172;45.018;5.972;2023-06-14T05:49:35;16.80;76.00
16134;DHT22;8172;45.018;5.972;2023-06-14T05:54:42;16.90;76.00
16134;DHT22;8172;45.018;5.972;2023-06-14T05:59:49;16.90;76.00
16134;DHT22;8172;45.018;5.972;2023-06-14T06:04:57;17.00;76.30
16134;DHT22;8172;45.018;5.972;2023-06-14T06:10:05;17.10;76.10
16134;DHT22;8172;45.018;5.972;2023-06-14T06:15:13;17.20;76.00
16134;DHT22;8172;45.018;5.972;2023-06-14T06:20:21;17.20;75.90
16134;DHT22;8172;45.018;5.972;2023-06-14T06:25:30;17.20;75.70
16134;DHT22;8172;45.018;5.972;2023-06-14T06:30:38;17.20;75.50
16134;DHT22;8172;45.018;5.972;2023-06-14T06:35:45;17.20;75.70
16134;DHT22;8172;45.018;5.972;2023-06-14T06:40:53;17.20;75.80
16134;DHT22;8172;45.018;5.972;2023-06-14T06:46:00;17.10;75.90
16134;DHT22;8172;45.018;5.972;2023-06-14T06:51:07;17.30;76.40
16134;DHT22;8172;45.018;5.972;2023-06-14T06:56:15;17.50;75.90
16134;DHT22;8172;45.018;5.972;2023-06-14T07:01:22;17.60;75.60
16134;DHT22;8172;45.018;5.972;2023-06-14T07:06:30;17.60;75.40
16134;DHT22;8172;45.018;5.972;2023-06-14T07:11:39;17.60;75.40
16134;DHT22;8172;45.018;5.972;2023-06-14T07:16:46;17.60;75.60
16134;DHT22;8172;45.018;5.972;2023-06-14T07:21:55;17.60;75.60
16134;DHT22;8172;45.018;5.972;2023-06-14T07:27:03;17.70;75.60
16134;DHT22;8172;45.018;5.972;2023-06-14T07:32:10;17.70;75.70
16134;DHT22;8172;45.018;5.972;2023-06-14T07:37:17;17.80;75.70
16134;DHT22;8172;45.018;5.972;2023-06-14T07:42:24;17.90;75.70
16134;DHT22;8172;45.018;5.972;2023-06-14T07:47:32;18.00;75.90
16134;DHT22;8172;45.018;5.972;2023-06-14T07:52:40;18.00;75.90
16134;DHT22;8172;45.018;5.972;2023-06-14T07:57:47;18.10;75.70
16134;DHT22;8172;45.018;5.972;2023-06-14T08:02:56;18.00;75.50
16134;DHT22;8172;45.018;5.972;2023-06-14T08:08:07;17.90;75.50
16134;DHT22;8172;45.018;5.972;2023-06-14T08:13:14;17.80;75.90
16134;DHT22;8172;45.018;5.972;2023-06-14T08:18:24;17.80;76.10
16134;DHT22;8172;45.018;5.972;2023-06-14T08:23:31;17.80;76.20
16134;DHT22;8172;45.018;5.972;2023-06-14T08:28:39;17.90;76.40
16134;DHT22;8172;45.018;5.972;2023-06-14T08:33:46;18.00;76.40
16134;DHT22;8172;45.018;5.972;2023-06-14T08:38:55;18.20;76.20
16134;DHT22;8172;45.018;5.972;2023-06-14T08:44:03;18.30;76.00
16134;DHT22;8172;45.018;5.972;2023-06-14T08:49:12;18.40;75.90
16134;DHT22;8172;45.018;5.972;2023-06-14T08:54:20;18.60;76.50
16134;DHT22;8172;45.018;5.972;2023-06-14T08:59:27;18.80;76.50
16134;DHT22;8172;45.018;5.972;2023-06-14T09:04:37;19.00;75.70
16134;DHT22;8172;45.018;5.972;2023-06-14T09:15:09;19.30;75.20
16134;DHT22;8172;45.018;5.972;2023-06-14T09:20:17;19.40;74.80
16134;DHT22;8172;45.018;5.972;2023-06-14T09:25:25;19.50;74.70
16134;DHT22;8172;45.018;5.972;2023-06-14T09:30:37;19.50;74.30
16134;DHT22;8172;45.018;5.972;2023-06-14T09:35:46;19.40;74.40
16134;DHT22;8172;45.018;5.972;2023-06-14T09:40:58;19.40;74.40
16134;DHT22;8172;45.018;5.972;2023-06-14T09:46:05;19.50;74.40
16134;DHT22;8172;45.018;5.972;2023-06-14T10:01:33;19.50;73.60
16134;DHT22;8172;45.018;5.972;2023-06-14T10:06:43;19.50;73.50
16134;DHT22;8172;45.018;5.972;2023-06-14T10:11:51;19.40;73.60
16134;DHT22;8172;45.018;5.972;2023-06-14T10:17:02;19.40;73.90
16134;DHT22;8172;45.018;5.972;2023-06-14T10:22:12;19.50;74.20
16134;DHT22;8172;45.018;5.972;2023-06-14T10:27:19;19.60;74.00
16134;DHT22;8172;45.018;5.972;2023-06-14T10:32:28;19.60;73.70
16134;DHT22;8172;45.018;5.972;2023-06-14T10:37:35;19.60;73.60
16134;DHT22;8172;45.018;5.972;2023-06-14T10:42:50;19.60;73.60
16134;DHT22;8172;45.018;5.972;2023-06-14T10:47:52;19.50;73.90
16134;DHT22;8172;45.018;5.972;2023-06-14T10:53:05;19.50;74.40
16134;DHT22;8172;45.018;5.972;2023-06-14T10:58:12;19.60;74.10
16134;DHT22;8172;45.018;5.972;2023-06-14T11:08:33;19.60;73.20
16134;DHT22;8172;45.018;5.972;2023-06-14T11:13:38;19.60;73.30
16134;DHT22;8172;45.018;5.972;2023-06-14T11:18:46;19.70;73.40
16134;DHT22;8172;45.018;5.972;2023-06-14T11:23:55;19.70;73.90
16134;DHT22;8172;45.018;5.972;2023-06-14T11:29:02;19.80;72.80
16134;DHT22;8172;45.018;5.972;2023-06-14T11:34:10;20.00;72.40
16134;DHT22;8172;45.018;5.972;2023-06-14T11:39:17;20.10;72.50
16134;DHT22;8172;45.018;5.972;2023-06-14T11:44:24;20.30;71.80
16134;DHT22;8172;45.018;5.972;2023-06-14T11:54:41;20.50;71.10
16134;DHT22;8172;45.018;5.972;2023-06-14T11:59:49;20.60;71.40
16134;DHT22;8172;45.018;5.972;2023-06-14T12:04:56;20.70;71.30
16134;DHT22;8172;45.018;5.972;2023-06-14T12:10:04;20.70;70.80
16134;DHT22;8172;45.018;5.972;2023-06-14T12:15:13;20.90;70.50
16134;DHT22;8172;45.018;5.972;2023-06-14T12:20:21;21.00;69.90
16134;DHT22;8172;45.018;5.972;2023-06-14T12:25:32;21.20;70.00
16134;DHT22;8172;45.018;5.972;2023-06-14T12:30:40;21.40;69.30
16134;DHT22;8172;45.018;5.972;2023-06-14T12:35:47;21.60;69.00
16134;DHT22;8172;45.018;5.972;2023-06-14T12:40:54;21.60;68.20
16134;DHT22;8172;45.018;5.972;2023-06-14T12:46:03;21.70;66.80
16134;DHT22;8172;45.018;5.972;2023-06-14T12:51:10;21.70;67.20
16134;DHT22;8172;45.018;5.972;2023-06-14T12:56:18;21.80;67.00
16134;DHT22;8172;45.018;5.972;2023-06-14T13:01:27;21.90;67.40
16134;DHT22;8172;45.018;5.972;2023-06-14T13:06:34;22.00;68.40
16134;DHT22;8172;45.018;5.972;2023-06-14T13:11:41;22.20;66.10
16134;DHT22;8172;45.018;5.972;2023-06-14T13:16:50;22.20;65.20
16134;DHT22;8172;45.018;5.972;2023-06-14T13:21:57;22.00;64.80
16134;DHT22;8172;45.018;5.972;2023-06-14T13:27:04;21.90;64.30
16134;DHT22;8172;45.018;5.972;2023-06-14T13:32:12;21.80;65.40
16134;DHT22;8172;45.018;5.972;2023-06-14T13:37:20;21.90;65.00
16134;DHT22;8172;45.018;5.972;2023-06-14T13:42:28;22.10;64.40
16134;DHT22;8172;45.018;5.972;2023-06-14T13:47:37;22.20;64.10
16134;DHT22;8172;45.018;5.972;2023-06-14T13:52:45;22.40;64.20
16134;DHT22;8172;45.018;5.972;2023-06-14T13:57:52;22.50;64.10
16134;DHT22;8172;45.018;5.972;2023-06-14T14:03:04;22.50;63.60
16134;DHT22;8172;45.018;5.972;2023-06-14T14:08:23;22.70;63.60
16134;DHT22;8172;45.018;5.972;2023-06-14T14:13:30;22.90;62.70
16134;DHT22;8172;45.018;5.972;2023-06-14T14:18:38;23.00;62.00
16134;DHT22;8172;45.018;5.972;2023-06-14T14:23:46;23.10;61.60
16134;DHT22;8172;45.018;5.972;2023-06-14T14:28:53;23.10;60.40
16134;DHT22;8172;45.018;5.972;2023-06-14T14:34:00;23.20;60.10
16134;DHT22;8172;45.018;5.972;2023-06-14T14:39:08;23.30;60.10
16134;DHT22;8172;45.018;5.972;2023-06-14T14:44:16;23.30;58.30
16134;DHT22;8172;45.018;5.972;2023-06-14T14:49:25;23.40;59.20
16134;DHT22;8172;45.018;5.972;2023-06-14T14:54:34;23.40;58.50
16134;DHT22;8172;45.018;5.972;2023-06-14T15:00:00;23.60;57.70
16134;DHT22;8172;45.018;5.972;2023-06-14T15:05:08;23.70;57.40
16134;DHT22;8172;45.018;5.972;2023-06-14T15:10:16;23.80;57.40
16134;DHT22;8172;45.018;5.972;2023-06-14T15:15:23;23.90;55.60
16134;DHT22;8172;45.018;5.972;2023-06-14T15:20:31;23.90;55.70
16134;DHT22;8172;45.018;5.972;2023-06-14T15:25:39;24.00;55.40
16134;DHT22;8172;45.018;5.972;2023-06-14T15:30:47;24.00;51.80
16134;DHT22;8172;45.018;5.972;2023-06-14T15:35:54;23.80;53.70
16134;DHT22;8172;45.018;5.972;2023-06-14T15:41:06;23.80;54.90
16134;DHT22;8172;45.018;5.972;2023-06-14T15:46:14;24.00;53.20
16134;DHT22;8172;45.018;5.972;2023-06-14T15:51:21;24.20;52.90
16134;DHT22;8172;45.018;5.972;2023-06-14T15:56:29;24.10;51.90
16134;DHT22;8172;45.018;5.972;2023-06-14T16:01:37;23.90;51.10
16134;DHT22;8172;45.018;5.972;2023-06-14T16:06:44;23.60;50.40
16134;DHT22;8172;45.018;5.972;2023-06-14T16:11:54;23.20;50.70
16134;DHT22;8172;45.018;5.972;2023-06-14T16:17:02;22.90;50.00
16134;DHT22;8172;45.018;5.972;2023-06-14T16:22:11;22.50;49.90
16134;DHT22;8172;45.018;5.972;2023-06-14T16:27:19;22.00;50.60
16134;DHT22;8172;45.018;5.972;2023-06-14T16:32:27;21.70;50.90
16134;DHT22;8172;45.018;5.972;2023-06-14T16:37:35;21.40;51.30
16134;DHT22;8172;45.018;5.972;2023-06-14T16:42:42;21.20;51.90
16134;DHT22;8172;45.018;5.972;2023-06-14T16:47:50;21.10;52.10
16134;DHT22;8172;45.018;5.972;2023-06-14T16:52:58;20.90;51.70
16134;DHT22;8172;45.018;5.972;2023-06-14T16:58:06;20.80;52.40
16134;DHT22;8172;45.018;5.972;2023-06-14T17:03:14;20.80;53.30
16134;DHT22;8172;45.018;5.972;2023-06-14T17:08:22;20.80;53.50
16134;DHT22;8172;45.018;5.972;2023-06-14T17:13:30;20.80;53.50
16134;DHT22;8172;45.018;5.972;2023-06-14T17:18:38;20.80;53.70
16134;DHT22;8172;45.018;5.972;2023-06-14T17:23:46;20.70;55.10
16134;DHT22;8172;45.018;5.972;2023-06-14T17:28:55;20.70;54.50
16134;DHT22;8172;45.018;5.972;2023-06-14T17:34:02;20.60;55.60
16134;DHT22;8172;45.018;5.972;2023-06-14T17:39:10;20.50;55.90
16134;DHT22;8172;45.018;5.972;2023-06-14T17:44:17;20.40;56.20
16134;DHT22;8172;45.018;5.972;2023-06-14T17:49:24;20.40;56.50
16134;DHT22;8172;45.018;5.972;2023-06-14T17:54:32;20.30;56.60
16134;DHT22;8172;45.018;5.972;2023-06-14T17:59:39;20.20;57.10
16134;DHT22;8172;45.018;5.972;2023-06-14T18:04:47;20.20;57.20
16134;DHT22;8172;45.018;5.972;2023-06-14T18:09:54;20.10;57.30
16134;DHT22;8172;45.018;5.972;2023-06-14T18:15:02;20.00;57.00
16134;DHT22;8172;45.018;5.972;2023-06-14T18:20:09;19.90;57.30
16134;DHT22;8172;45.018;5.972;2023-06-14T18:25:17;19.90;57.80
16134;DHT22;8172;45.018;5.972;2023-06-14T18:30:25;19.80;57.30
16134;DHT22;8172;45.018;5.972;2023-06-14T18:35:32;19.70;57.80
16134;DHT22;8172;45.018;5.972;2023-06-14T18:40:39;19.70;57.80
16134;DHT22;8172;45.018;5.972;2023-06-14T18:45:47;19.60;58.20
16134;DHT22;8172;45.018;5.972;2023-06-14T18:50:55;19.50;58.50
16134;DHT22;8172;45.018;5.972;2023-06-14T18:56:02;19.50;58.60
16134;DHT22;8172;45.018;5.972;2023-06-14T19:01:10;19.40;58.80
16134;DHT22;8172;45.018;5.972;2023-06-14T19:06:20;19.40;58.90
16134;DHT22;8172;45.018;5.972;2023-06-14T19:11:31;19.30;59.00
16134;DHT22;8172;45.018;5.972;2023-06-14T19:16:39;19.30;58.80
16134;DHT22;8172;45.018;5.972;2023-06-14T19:21:48;19.20;59.20
16134;DHT22;8172;45.018;5.972;2023-06-14T19:26:59;19.10;59.00
16134;DHT22;8172;45.018;5.972;2023-06-14T19:32:13;19.00;59.40
16134;DHT22;8172;45.018;5.972;2023-06-14T19:37:22;19.00;59.50
16134;DHT22;8172;45.018;5.972;2023-06-14T19:42:29;18.90;59.40
16134;DHT22;8172;45.018;5.972;2023-06-14T19:47:37;18.80;59.20
16134;DHT22;8172;45.018;5.972;2023-06-14T19:52:48;18.70;59.30
16134;DHT22;8172;45.018;5.972;2023-06-14T19:58:20;18.70;59.40
16134;DHT22;8172;45.018;5.972;2023-06-14T20:03:28;18.60;59.80
16134;DHT22;8172;45.018;5.972;2023-06-14T20:08:35;18.60;59.70
16134;DHT22;8172;45.018;5.972;2023-06-14T20:13:42;18.50;59.70
16134;DHT22;8172;45.018;5.972;2023-06-14T20:18:50;18.50;59.80
16134;DHT22;8172;45.018;5.972;2023-06-14T20:23:57;18.40;59.90
16134;DHT22;8172;45.018;5.972;2023-06-14T20:29:05;18.40;59.70
16134;DHT22;8172;45.018;5.972;2023-06-14T20:34:12;18.30;59.70
16134;DHT22;8172;45.018;5.972;2023-06-14T20:39:25;18.20;60.00
16134;DHT22;8172;45.018;5.972;2023-06-14T20:44:33;18.20;60.20
16134;DHT22;8172;45.018;5.972;2023-06-14T20:49:43;18.10;60.20
16134;DHT22;8172;45.018;5.972;2023-06-14T20:54:51;18.00;60.20
16134;DHT22;8172;45.018;5.972;2023-06-14T21:00:00;18.00;60.20
16134;DHT22;8172;45.018;5.972;2023-06-14T21:05:09;17.90;60.00
16134;DHT22;8172;45.018;5.972;2023-06-14T21:10:18;17.80;60.20
16134;DHT22;8172;45.018;5.972;2023-06-14T21:15:27;17.80;60.40
16134;DHT22;8172;45.018;5.972;2023-06-14T21:20:34;17.70;60.30
16134;DHT22;8172;45.018;5.972;2023-06-14T21:25:42;17.70;60.40
16134;DHT22;8172;45.018;5.972;2023-06-14T21:30:49;17.70;60.40
16134;DHT22;8172;45.018;5.972;2023-06-14T23:19:35;16.90;60.80
16134;DHT22;8172;45.018;5.972;2023-06-14T23:24:42;16.90;60.80
16134;DHT22;8172;45.018;5.972;2023-06-14T23:29:49;16.80;60.80
16134;DHT22;8172;45.018;5.972;2023-06-14T23:34:58;16.80;60.80
16134;DHT22;8172;45.018;5.972;2023-06-14T23:40:06;16.80;60.90
16134;DHT22;8172;45.018;5.972;2023-06-14T23:45:15;16.80;60.90
16134;DHT22;8172;45.018;5.972;2023-06-14T23:50:23;16.80;60.80
16134;DHT22;8172;45.018;5.972;2023-06-14T23:55:30;16.80;60.80
